Time;durP1;ratioP1;P1;durP2;ratioP2;P2;SDS_P1;SDS_P2;PMS_P1;PMS_P2;Temp;Humidity;BMP_temperature;BMP_pressure;BME280_temperature;BME280_humidity;BME280_pressure;Samples;Min_cycle;Max_cycle;Signal;HPM_P1;HPM_P2
2021/04/13 04:52:51;;;;;;;;;;;;;;;8.77;81.43;97831.20;1709522;83;20536;-67
2021/04/13 04:55:19;;;;;;;;;;;;;;;9.12;80.07;97838.98;1676724;84;20494;-69
2021/04/13 04:57:46;;;;;;;;;;;;;;;9.33;79.07;97838.34;1680165;83;20513;-70
2021/04/13 05:00:16;;;;;;;;;;;;;;;9.50;78.26;97833.94;1704514;82;20652;-71
2021/04/13 05:02:46;;;;;;;;;;;;;;;9.64;77.50;97833.12;1704703;82;20441;-72
2021/04/13 05:05:14;;;;;;;;;;;;;;;9.77;77.10;97834.13;1704036;82;20598;-69
2021/04/13 05:07:42;;;;;;;;;;;;;;;9.87;76.80;97834.83;1703128;82;20570;-69
2021/04/13 05:10:12;;;;;;;;;;;;;;;9.94;76.55;97834.16;1676084;84;20446;-73
2021/04/13 05:12:40;;;;;;;;;;;;;;;9.99;76.51;97832.91;1671072;83;20491;-66
2021/04/13 05:15:09;;;;;;;;;;;;;;;10.04;76.60;97835.09;1675986;83;21902;-73
2021/04/13 05:17:37;;;;;;;;;;;;;;;10.08;76.72;97834.91;1677146;84;20490;-67
2021/04/13 05:20:06;;;;;;;;;;;;;;;10.12;76.59;97831.28;1671541;85;20507;-69
2021/04/13 05:22:35;;;;;;;;;;;;;;;10.16;76.33;97835.00;1659536;84;20629;-69
2021/04/13 05:25:04;;;;;;;;;;;;;;;10.20;76.39;97842.73;1676755;83;20526;-66
2021/04/13 05:27:32;;;;;;;;;;;;;;;10.22;76.10;97834.62;1674865;83;22389;-70
2021/04/13 05:30:00;;;;;;;;;;;;;;;10.24;76.05;97835.15;1686575;83;20424;-65
2021/04/13 05:32:28;;;;;;;;;;;;;;;10.27;76.10;97836.00;1685983;83;20679;-69
2021/04/13 05:34:56;;;;;;;;;;;;;;;10.29;75.96;97840.50;1679821;83;20617;-68
2021/04/13 05:37:29;;;;;;;;;;;;;;;10.34;76.03;97837.42;1671594;83;20485;-69
2021/04/13 05:39:58;;;;;;;;;;;;;;;10.38;75.94;97837.72;1674863;83;22343;-69
2021/04/13 05:42:27;;;;;;;;;;;;;;;10.45;75.67;97839.66;1675442;83;20608;-71
2021/04/13 05:44:55;;;;;;;;;;;;;;;10.49;75.64;97832.91;1677906;83;20521;-66
2021/04/13 05:47:24;;;;;;;;;;;;;;;10.53;75.74;97830.86;1680755;83;20337;-73
2021/04/13 05:49:52;;;;;;;;;;;;;;;10.57;75.58;97839.06;1684832;83;20517;-67
2021/04/13 05:52:20;;;;;;;;;;;;;;;10.60;75.60;97839.88;1681168;83;21781;-75
2021/04/13 05:54:49;;;;;;;;;;;;;;;10.63;75.78;97837.30;1686841;83;20683;-68
2021/04/13 05:57:19;;;;;;;;;;;;;;;10.67;75.59;97837.08;1670928;83;20161;-74
2021/04/13 05:59:52;;;;;;;;;;;;;;;10.74;75.50;97838.48;1677584;83;20372;-67
2021/04/13 06:02:20;;;;;;;;;;;;;;;10.78;75.39;97833.03;1682661;83;20815;-69
2021/04/13 06:04:51;;;;;;;;;;;;;;;10.86;75.11;97833.14;1675723;83;21940;-66
2021/04/13 06:07:19;;;;;;;;;;;;;;;10.93;74.69;97843.75;1673732;83;20533;-68
2021/04/13 06:09:47;;;;;;;;;;;;;;;10.98;74.67;97840.38;1674388;83;20493;-70
2021/04/13 06:12:15;;;;;;;;;;;;;;;11.03;73.95;97844.89;1672148;83;20529;-68
2021/04/13 06:14:43;;;;;;;;;;;;;;;11.08;74.09;97854.18;1676143;83;20521;-73
2021/04/13 06:17:15;;;;;;;;;;;;;;;11.12;74.22;97857.89;1679350;83;20874;-68
2021/04/13 06:19:47;;;;;;;;;;;;;;;11.18;74.19;97850.33;1684509;83;20530;-69
2021/04/13 06:22:18;;;;;;;;;;;;;;;11.25;74.35;97848.31;1679818;83;20517;-69
2021/04/13 06:24:47;;;;;;;;;;;;;;;11.31;74.10;97851.27;1656584;83;20570;-69
2021/04/13 06:27:16;;;;;;;;;;;;;;;11.41;73.94;97850.59;1682554;83;20610;-67
2021/04/13 06:29:45;;;;;;;;;;;;;;;11.50;73.88;97857.02;1675437;83;22277;-69
2021/04/13 06:32:13;;;;;;;;;;;;;;;11.56;73.86;97860.77;1678384;83;20478;-69
2021/04/13 06:34:41;;;;;;;;;;;;;;;11.64;73.27;97851.63;1681673;83;20529;-67
2021/04/13 06:37:09;;;;;;;;;;;;;;;11.73;73.22;97862.78;1671421;82;20502;-69
2021/04/13 06:39:37;;;;;;;;;;;;;;;11.81;72.58;97863.41;1655601;84;20639;-66
2021/04/13 06:42:19;;;;;;;;;;;;;;;11.85;72.62;97862.65;1675266;83;20503;-69
2021/04/13 06:45:07;;;;;;;;;;;;;;;11.94;72.44;97866.95;1675757;84;20506;-69
2021/04/13 06:47:47;;;;;;;;;;;;;;;11.99;72.01;97861.20;1676540;82;20221;-69
2021/04/13 06:50:21;;;;;;;;;;;;;;;12.07;72.21;97868.64;1669868;82;20529;-68
2021/04/13 06:53:18;;;;;;;;;;;;;;;12.16;72.32;97871.62;1667795;83;20874;-69
2021/04/13 06:55:52;;;;;;;;;;;;;;;12.26;71.48;97870.88;1664811;84;20726;-72
2021/04/13 06:58:40;;;;;;;;;;;;;;;12.35;71.66;97875.44;1662660;83;20612;-71
2021/04/13 07:01:20;;;;;;;;;;;;;;;12.39;71.23;97877.06;1668618;83;20601;-67
2021/04/13 07:03:59;;;;;;;;;;;;;;;12.42;71.51;97873.38;1668146;84;20743;-69
2021/04/13 07:06:31;;;;;;;;;;;;;;;12.41;72.12;97875.74;1666218;84;20612;-66
2021/04/13 07:09:06;;;;;;;;;;;;;;;12.42;71.89;97878.66;1687867;83;20960;-70
2021/04/13 07:11:39;;;;;;;;;;;;;;;12.46;71.67;97880.28;1666387;85;20418;-71
2021/04/13 07:14:17;;;;;;;;;;;;;;;12.50;71.98;97883.98;1670045;83;20485;-66
2021/04/13 07:16:58;;;;;;;;;;;;;;;12.55;71.72;97881.89;1670321;84;20455;-69
2021/04/13 07:19:32;;;;;;;;;;;;;;;12.56;71.53;97887.44;1664809;84;20499;-63
2021/04/13 07:22:06;;;;;;;;;;;;;;;12.55;71.58;97887.96;1669511;83;20925;-69
2021/04/13 07:24:51;;;;;;;;;;;;;;;12.56;71.83;97889.55;1659160;84;20645;-73
2021/04/13 07:27:26;;;;;;;;;;;;;;;12.63;71.42;97888.81;1666727;84;20502;-68
2021/04/13 07:29:58;;;;;;;;;;;;;;;12.71;71.20;97888.34;1667950;84;20587;-64
2021/04/13 07:32:27;;;;;;;;;;;;;;;12.82;71.03;97894.48;1663033;83;20569;-70
2021/04/13 07:34:57;;;;;;;;;;;;;;;12.88;70.82;97890.81;1668151;83;21868;-69
2021/04/13 07:37:35;;;;;;;;;;;;;;;12.94;70.56;97891.63;1669255;83;20463;-66
2021/04/13 07:40:18;;;;;;;;;;;;;;;12.99;70.92;97892.97;1666199;83;21063;-71
2021/04/13 07:42:49;;;;;;;;;;;;;;;13.07;69.91;97905.67;1669790;83;20249;-67
2021/04/13 07:45:23;;;;;;;;;;;;;;;13.11;70.03;97894.34;1667444;83;20601;-68
2021/04/13 07:48:23;;;;;;;;;;;;;;;13.19;70.13;97901.80;1667572;83;21205;-67
2021/04/13 07:51:14;;;;;;;;;;;;;;;13.29;70.68;97891.81;1666562;83;20398;-67
2021/04/13 07:54:07;;;;;;;;;;;;;;;13.44;70.50;97894.52;1683615;83;20517;-72
2021/04/13 07:56:52;;;;;;;;;;;;;;;13.60;70.28;97892.72;1693023;82;20240;-70
2021/04/13 07:59:35;;;;;;;;;;;;;;;13.72;69.79;97897.23;1680711;83;20635;-80
2021/04/13 08:02:03;;;;;;;;;;;;;;;13.78;68.97;97904.11;1686291;83;20813;-72
2021/04/13 08:04:32;;;;;;;;;;;;;;;13.81;69.04;97910.20;1689194;83;20329;-77
2021/04/13 08:07:05;;;;;;;;;;;;;;;13.84;68.10;97913.63;1690113;83;20542;-70
2021/04/13 08:09:41;;;;;;;;;;;;;;;13.85;68.18;97913.89;1696576;82;20598;-70
2021/04/13 08:12:13;;;;;;;;;;;;;;;13.83;67.47;97912.59;1690941;83;20830;-66
2021/04/13 08:14:57;;;;;;;;;;;;;;;13.75;67.85;97917.05;1688665;82;21870;-69
2021/04/13 08:17:29;;;;;;;;;;;;;;;13.70;68.72;97903.30;1630854;83;20634;-71
2021/04/13 08:19:59;;;;;;;;;;;;;;;13.77;69.14;97907.00;1687160;83;20350;-72
2021/04/13 08:22:27;;;;;;;;;;;;;;;13.84;67.87;97912.83;1693041;82;20320;-69
2021/04/13 08:24:57;;;;;;;;;;;;;;;13.81;68.21;97906.23;1689986;83;20621;-71
2021/04/13 08:27:45;;;;;;;;;;;;;;;13.88;68.33;97900.70;1686015;82;20805;-66
2021/04/13 08:30:47;;;;;;;;;;;;;;;13.92;67.90;97905.19;1684404;83;20505;-68
2021/04/13 08:33:28;;;;;;;;;;;;;;;13.84;67.11;97896.98;1690878;83;20557;-77
2021/04/13 08:36:02;;;;;;;;;;;;;;;13.76;68.15;97903.56;1688741;83;20238;-74
2021/04/13 08:38:47;;;;;;;;;;;;;;;13.63;67.72;97904.06;1690143;83;20607;-69
2021/04/13 08:41:22;;;;;;;;;;;;;;;13.47;68.67;97913.02;1692140;82;22183;-70
2021/04/13 08:43:56;;;;;;;;;;;;;;;13.36;68.76;97904.25;1695079;83;20559;-69
2021/04/13 08:46:52;;;;;;;;;;;;;;;13.29;68.80;97908.98;1683306;83;20596;-71
2021/04/13 08:49:40;;;;;;;;;;;;;;;13.28;68.53;97907.38;1684114;83;20526;-69
2021/04/13 08:52:30;;;;;;;;;;;;;;;13.19;68.39;97913.67;1665259;82;21291;-66
2021/04/13 08:55:11;;;;;;;;;;;;;;;13.13;68.67;97903.36;1668000;84;22067;-73
2021/04/13 08:57:42;;;;;;;;;;;;;;;13.13;68.87;97912.59;1667624;84;20671;-72
2021/04/13 09:00:39;;;;;;;;;;;;;;;13.15;69.00;97905.22;1663652;83;20324;-69
2021/04/13 09:03:12;;;;;;;;;;;;;;;13.17;69.02;97900.48;1612422;87;21070;-71
2021/04/13 09:05:51;;;;;;;;;;;;;;;13.25;69.16;97884.93;1819222;76;20668;-70
2021/04/13 09:08:44;;;;;;;;;;;;;;;13.24;67.91;97903.16;1827678;77;20737;-70
2021/04/13 09:11:32;;;;;;;;;;;;;;;13.24;68.10;97892.61;1784788;79;21863;-70
2021/04/13 09:14:11;;;;;;;;;;;;;;;13.39;68.36;97893.71;1788344;79;20507;-62
2021/04/13 09:16:46;;;;;;;;;;;;;;;13.51;67.85;97896.39;1747614;77;20479;-68
2021/04/13 09:19:33;;;;;;;;;;;;;;;13.59;67.21;97891.13;1785561;77;20503;-66
2021/04/13 09:22:06;;;;;;;;;;;;;;;13.55;66.69;97890.05;1788078;77;20586;-68
2021/04/13 09:24:44;;;;;;;;;;;;;;;13.36;67.14;97888.94;1797154;77;21926;-68
2021/04/13 09:27:28;;;;;;;;;;;;;;;13.20;67.89;97894.67;1784101;77;20583;-68
2021/04/13 09:29:59;;;;;;;;;;;;;;;13.08;68.53;97892.23;1791785;77;20262;-68
2021/04/13 09:32:31;;;;;;;;;;;;;;;13.00;69.12;97892.72;1792031;77;20668;-69
2021/04/13 09:35:04;;;;;;;;;;;;;;;12.94;69.69;97895.59;1793016;77;20613;-69
2021/04/13 09:37:52;;;;;;;;;;;;;;;12.89;69.86;97899.00;1788384;77;21821;-68
2021/04/13 09:40:27;;;;;;;;;;;;;;;12.80;69.51;97898.69;1794775;79;20502;-68
2021/04/13 09:43:24;;;;;;;;;;;;;;;12.65;70.57;97893.83;1782240;77;20516;-68
2021/04/13 09:46:13;;;;;;;;;;;;;;;12.56;71.10;97905.37;1696466;79;20570;-67
2021/04/13 09:48:50;;;;;;;;;;;;;;;12.54;71.76;97906.14;1688159;83;20629;-67
2021/04/13 09:51:30;;;;;;;;;;;;;;;12.64;71.29;97899.63;1611376;83;20807;-66
2021/04/13 09:54:14;;;;;;;;;;;;;;;12.76;70.23;97898.91;1680696;83;20560;-63
2021/04/13 09:57:08;;;;;;;;;;;;;;;12.83;70.21;97900.00;1693134;83;20593;-66
2021/04/13 10:00:00;;;;;;;;;;;;;;;12.82;69.28;97903.16;1679009;83;20514;-70
2021/04/13 10:02:58;;;;;;;;;;;;;;;12.79;69.37;97902.36;1710451;82;20733;-68
2021/04/13 10:05:30;;;;;;;;;;;;;;;12.73;70.16;97899.44;1712114;81;22551;-70
2021/04/13 10:08:24;;;;;;;;;;;;;;;12.77;69.68;97901.02;1695408;82;20470;-65
2021/04/13 10:11:29;;;;;;;;;;;;;;;12.82;69.48;97895.80;1703566;82;20404;-69
2021/04/13 10:14:24;;;;;;;;;;;;;;;12.82;69.14;97893.16;1687450;82;20482;-68
2021/04/13 10:17:17;;;;;;;;;;;;;;;12.69;69.57;97897.02;1689769;82;20323;-67
2021/04/13 10:20:09;;;;;;;;;;;;;;;12.59;69.81;97910.15;1705744;82;22042;-66
2021/04/13 10:22:59;;;;;;;;;;;;;;;12.55;70.25;97914.84;1701276;82;20485;-68
2021/04/13 10:25:52;;;;;;;;;;;;;;;12.38;70.65;97914.48;1697543;82;20494;-69
2021/04/13 10:28:56;;;;;;;;;;;;;;;12.22;70.46;97928.58;1692203;82;20248;-64
2021/04/13 10:31:51;;;;;;;;;;;;;;;12.15;70.89;97921.92;1690596;82;20677;-68
2021/04/13 10:34:53;;;;;;;;;;;;;;;12.05;71.55;97927.36;1697515;82;20800;-66
2021/04/13 10:37:58;;;;;;;;;;;;;;;11.95;71.40;97922.53;1701848;82;20501;-66
2021/04/13 10:40:56;;;;;;;;;;;;;;;11.85;71.84;97921.91;1678589;82;20584;-67
2021/04/13 10:43:58;;;;;;;;;;;;;;;11.77;72.10;97915.76;1691741;82;20624;-68
2021/04/13 10:46:51;;;;;;;;;;;;;;;11.70;72.05;97919.08;1698084;82;20736;-65
2021/04/13 10:49:35;;;;;;;;;;;;;;;11.63;72.78;97915.33;1700444;82;20642;-67
2021/04/13 10:52:25;;;;;;;;;;;;;;;11.63;72.09;97921.91;1706921;82;20609;-69
2021/04/13 10:55:14;;;;;;;;;;;;;;;11.71;72.39;97920.16;1693657;82;20543;-71
2021/04/13 10:58:07;;;;;;;;;;;;;;;11.83;70.94;97923.98;1703757;82;20389;-69
2021/04/13 11:00:41;;;;;;;;;;;;;;;11.80;70.36;97923.17;1700802;82;20516;-70
2021/04/13 11:03:48;;;;;;;;;;;;;;;11.78;70.46;97917.88;1696609;83;21522;-64
2021/04/13 11:06:36;;;;;;;;;;;;;;;11.68;70.58;97933.80;1712586;82;20474;-68
2021/04/13 11:09:29;;;;;;;;;;;;;;;11.57;70.42;97934.74;1694887;83;20300;-64
2021/04/13 11:12:33;;;;;;;;;;;;;;;11.44;70.51;97925.91;1703430;82;20481;-68
2021/04/13 11:15:40;;;;;;;;;;;;;;;11.33;70.87;97924.98;1706859;82;20230;-70
2021/04/13 11:18:34;;;;;;;;;;;;;;;11.22;71.52;97927.22;1710809;82;21776;-69
2021/04/13 11:21:20;;;;;;;;;;;;;;;11.22;71.71;97930.38;1709376;82;20499;-70
2021/04/13 11:24:25;;;;;;;;;;;;;;;11.28;71.73;97938.59;1703292;82;20494;-67
2021/04/13 11:27:13;;;;;;;;;;;;;;;11.30;71.23;97930.75;1709257;82;20562;-66
2021/04/13 11:30:08;;;;;;;;;;;;;;;11.31;71.05;97938.09;1705799;82;20481;-70
2021/04/13 11:33:02;;;;;;;;;;;;;;;11.20;71.01;97938.50;1710032;82;21899;-67
2021/04/13 11:35:41;;;;;;;;;;;;;;;11.15;70.62;97936.33;1677157;82;20602;-65
2021/04/13 11:38:29;;;;;;;;;;;;;;;11.10;70.68;97940.98;1723803;82;20494;-68
2021/04/13 11:41:24;;;;;;;;;;;;;;;11.02;70.66;97944.58;1714133;82;20491;-62
2021/04/13 11:44:20;;;;;;;;;;;;;;;10.89;71.12;97945.17;1716676;82;20969;-69
2021/04/13 11:47:12;;;;;;;;;;;;;;;10.79;71.63;97941.11;1708733;82;21393;-68
2021/04/13 11:50:02;;;;;;;;;;;;;;;10.77;71.87;97946.31;1711769;82;20240;-64
2021/04/13 11:52:53;;;;;;;;;;;;;;;10.68;71.77;97963.52;1711088;82;20224;-69
2021/04/13 11:55:31;;;;;;;;;;;;;;;10.56;72.41;97945.22;1717901;82;20299;-65
2021/04/13 11:58:21;;;;;;;;;;;;;;;10.51;72.85;97943.31;1716454;82;20652;-66
2021/04/13 12:00:52;;;;;;;;;;;;;;;10.55;73.02;97948.88;1720498;82;22019;-67
2021/04/13 12:03:22;;;;;;;;;;;;;;;10.56;72.80;97952.59;1720811;82;20327;-65
2021/04/13 12:05:52;;;;;;;;;;;;;;;10.54;72.84;97941.51;1717609;82;20133;-65
2021/04/13 12:08:38;;;;;;;;;;;;;;;10.49;71.83;97941.95;1708487;82;20242;-71
2021/04/13 12:11:13;;;;;;;;;;;;;;;10.38;71.98;97936.24;1720117;82;20574;-71
2021/04/13 12:13:49;;;;;;;;;;;;;;;10.31;72.53;97942.97;1699905;82;21917;-72
2021/04/13 12:16:47;;;;;;;;;;;;;;;10.24;72.73;97947.58;1721843;82;20494;-70
2021/04/13 12:19:18;;;;;;;;;;;;;;;10.16;73.67;97939.54;1718841;82;20486;-71
2021/04/13 12:21:53;;;;;;;;;;;;;;;10.10;74.34;97938.38;1720277;81;20509;-68
2021/04/13 12:24:45;;;;;;;;;;;;;;;10.01;74.93;97938.50;1706513;82;21253;-66
2021/04/13 12:27:34;;;;;;;;;;;;;;;9.95;75.70;97940.22;1672807;83;21882;-68
2021/04/13 12:30:23;;;;;;;;;;;;;;;9.93;75.98;97937.06;1720790;82;20494;-69
2021/04/13 12:32:53;;;;;;;;;;;;;;;9.91;76.29;97937.80;1695164;82;20493;-73
2021/04/13 12:35:45;;;;;;;;;;;;;;;9.85;76.09;97937.44;1714098;81;20644;-62
2021/04/13 12:38:45;;;;;;;;;;;;;;;9.75;75.96;97938.03;1713559;81;20610;-68
2021/04/13 12:41:31;;;;;;;;;;;;;;;9.59;75.03;97937.45;1722304;81;21840;-69
2021/04/13 12:44:13;;;;;;;;;;;;;;;9.54;75.63;97939.20;1721679;81;20487;-67
2021/04/13 12:46:42;;;;;;;;;;;;;;;9.48;73.91;97936.99;1695423;83;20407;-68
2021/04/13 12:49:15;;;;;;;;;;;;;;;9.38;74.43;97946.77;1684580;83;20402;-66
2021/04/13 12:52:01;;;;;;;;;;;;;;;9.37;75.14;97937.80;1680064;84;20674;-64
2021/04/13 12:54:33;;;;;;;;;;;;;;;9.32;76.21;97938.52;1674748;84;21883;-67
2021/04/13 12:57:07;;;;;;;;;;;;;;;9.24;76.63;97934.94;1674223;83;20613;-65
2021/04/13 12:59:37;;;;;;;;;;;;;;;9.09;77.96;97942.99;1719035;81;20478;-69
2021/04/13 13:02:07;;;;;;;;;;;;;;;8.95;78.74;97938.50;1696744;83;20415;-74
2021/04/13 13:04:38;;;;;;;;;;;;;;;8.83;80.10;97947.70;1687137;83;20590;-66
2021/04/13 13:07:07;;;;;;;;;;;;;;;8.74;79.94;97942.50;1685819;83;21356;-71
2021/04/13 13:09:39;;;;;;;;;;;;;;;8.69;79.25;97931.12;1708848;82;20497;-70
2021/04/13 13:12:20;;;;;;;;;;;;;;;8.65;79.36;97953.55;1718332;81;20551;-68
2021/04/13 13:14:51;;;;;;;;;;;;;;;8.61;78.63;97937.49;1711361;81;20666;-68
2021/04/13 13:17:23;;;;;;;;;;;;;;;8.54;79.09;97940.23;1722771;80;20767;-68
2021/04/13 13:19:51;;;;;;;;;;;;;;;8.50;78.83;97942.23;1673347;83;21917;-65
2021/04/13 13:22:22;;;;;;;;;;;;;;;8.42;79.81;97941.25;1719435;81;20466;-68
2021/04/13 13:24:51;;;;;;;;;;;;;;;8.38;79.62;97931.72;1680004;83;20517;-66
2021/04/13 13:27:27;;;;;;;;;;;;;;;8.39;79.76;97925.45;1718173;81;20615;-70
2021/04/13 13:29:55;;;;;;;;;;;;;;;8.40;79.00;97945.39;1710909;82;20603;-69
2021/04/13 13:32:24;;;;;;;;;;;;;;;8.33;78.76;97928.19;1711254;81;22034;-67
2021/04/13 13:34:54;;;;;;;;;;;;;;;8.22;78.87;97935.75;1714064;81;20500;-70
2021/04/13 13:37:25;;;;;;;;;;;;;;;8.15;78.97;97925.89;1716403;81;20495;-69
2021/04/13 13:39:53;;;;;;;;;;;;;;;8.07;79.85;97932.75;1727365;81;20574;-71
2021/04/13 13:42:21;;;;;;;;;;;;;;;8.10;79.93;97923.67;1721957;81;20607;-69
2021/04/13 13:44:50;;;;;;;;;;;;;;;8.07;79.42;97935.37;1709450;81;21889;-67
2021/04/13 13:47:26;;;;;;;;;;;;;;;8.05;79.40;97917.80;1682933;81;20701;-68
2021/04/13 13:49:55;;;;;;;;;;;;;;;8.05;79.38;97913.88;1703289;81;20323;-66
2021/04/13 13:52:42;;;;;;;;;;;;;;;8.02;79.87;97914.31;1704902;82;21257;-67
2021/04/13 13:55:17;;;;;;;;;;;;;;;8.02;80.18;97925.30;1708779;81;20759;-67
2021/04/13 13:57:58;;;;;;;;;;;;;;;8.04;80.47;97912.28;1705547;83;21955;-65
2021/04/13 14:00:53;;;;;;;;;;;;;;;8.05;80.25;97920.42;1672659;84;20499;-63
2021/04/13 14:03:45;;;;;;;;;;;;;;;8.01;80.16;97915.34;1710343;82;20485;-70
